Terminal Aerodrome Forecast
Issued by NWS Louisville, KY

Home | Current Version | Previous Version | Text Only | Print | Product List | Glossary On
Versions: 1 2 3 4 5 6 7 8 9 10 11 12 13 14 15 16 17
000
FTUS43 KLMK 010500
TAFSDF
TAF
KSDF 010520Z 0106/0212 12005KT P6SM OVC100
     FM011700 17012KT 5SM -RA BKN040
     FM011900 18011G21KT 5SM -RA OVC025
     FM020100 24011KT P6SM VCSH OVC021
     FM021000 29012G24KT P6SM OVC025=

USA.gov is the U.S. government's official web portal to all federal, state and local government web resources and services.